sensor_id;sensor_type;location;lat;lon;timestamp;P1;durP1;ratioP1;P2;durP2;ratioP2
75984;SDS011;65033;44.660;37.758;2023-04-03T00:01:07;3.53;;;1.73;;
75984;SDS011;65033;44.660;37.758;2023-04-03T00:02:11;4.90;;;1.85;;
75984;SDS011;65033;44.660;37.758;2023-04-03T00:03:15;4.75;;;1.88;;
75984;SDS011;65033;44.660;37.758;2023-04-03T00:04:18;4.28;;;1.27;;
75984;SDS011;65033;44.660;37.758;2023-04-03T00:05:25;3.72;;;1.45;;
75984;SDS011;65033;44.660;37.758;2023-04-03T00:06:28;6.15;;;2.03;;
75984;SDS011;65033;44.660;37.758;2023-04-03T00:07:31;4.70;;;1.58;;
75984;SDS011;65033;44.660;37.758;2023-04-03T00:08:35;6.22;;;1.83;;
75984;SDS011;65033;44.660;37.758;2023-04-03T00:09:38;4.30;;;1.88;;
75984;SDS011;65033;44.660;37.758;2023-04-03T00:10:42;6.40;;;1.50;;
75984;SDS011;65033;44.660;37.758;2023-04-03T00:11:45;5.07;;;1.92;;
75984;SDS011;65033;44.660;37.758;2023-04-03T00:12:50;4.80;;;1.73;;
75984;SDS011;65033;44.660;37.758;2023-04-03T00:13:53;4.80;;;1.80;;
75984;SDS011;65033;44.660;37.758;2023-04-03T00:14:56;5.38;;;1.60;;
75984;SDS011;65033;44.660;37.758;2023-04-03T00:16:00;5.30;;;1.30;;
75984;SDS011;65033;44.660;37.758;2023-04-03T00:17:06;3.30;;;1.60;;
75984;SDS011;65033;44.660;37.758;2023-04-03T00:18:09;4.50;;;1.60;;
75984;SDS011;65033;44.660;37.758;2023-04-03T00:19:12;4.47;;;1.98;;
75984;SDS011;65033;44.660;37.758;2023-04-03T00:20:16;8.85;;;4.32;;
75984;SDS011;65033;44.660;37.758;2023-04-03T00:21:19;5.20;;;1.73;;
75984;SDS011;65033;44.660;37.758;2023-04-03T00:22:22;4.85;;;1.95;;
75984;SDS011;65033;44.660;37.758;2023-04-03T00:23:26;5.00;;;1.75;;
75984;SDS011;65033;44.660;37.758;2023-04-03T00:24:29;8.00;;;1.85;;
75984;SDS011;65033;44.660;37.758;2023-04-03T00:25:32;6.05;;;2.15;;
75984;SDS011;65033;44.660;37.758;2023-04-03T00:26:36;3.65;;;1.95;;
75984;SDS011;65033;44.660;37.758;2023-04-03T00:27:39;6.05;;;2.20;;
75984;SDS011;65033;44.660;37.758;2023-04-03T00:28:45;4.30;;;1.95;;
75984;SDS011;65033;44.660;37.758;2023-04-03T00:29:49;5.72;;;2.67;;
75984;SDS011;65033;44.660;37.758;2023-04-03T00:30:53;5.90;;;2.20;;
75984;SDS011;65033;44.660;37.758;2023-04-03T00:31:56;4.15;;;2.95;;
75984;SDS011;65033;44.660;37.758;2023-04-03T00:32:59;4.57;;;1.60;;
75984;SDS011;65033;44.660;37.758;2023-04-03T00:34:03;6.20;;;1.80;;
75984;SDS011;65033;44.660;37.758;2023-04-03T00:35:07;4.75;;;1.42;;
75984;SDS011;65033;44.660;37.758;2023-04-03T00:36:12;5.25;;;1.92;;
75984;SDS011;65033;44.660;37.758;2023-04-03T00:37:16;2.80;;;1.40;;
75984;SDS011;65033;44.660;37.758;2023-04-03T00:38:19;3.38;;;1.50;;
75984;SDS011;65033;44.660;37.758;2023-04-03T00:39:22;7.45;;;1.60;;
75984;SDS011;65033;44.660;37.758;2023-04-03T00:40:26;5.50;;;1.95;;
75984;SDS011;65033;44.660;37.758;2023-04-03T00:41:30;5.88;;;1.90;;
75984;SDS011;65033;44.660;37.758;2023-04-03T00:42:34;3.70;;;1.73;;
75984;SDS011;65033;44.660;37.758;2023-04-03T00:43:38;3.97;;;1.90;;
75984;SDS011;65033;44.660;37.758;2023-04-03T00:46:20;7.68;;;1.90;;
75984;SDS011;65033;44.660;37.758;2023-04-03T00:47:23;3.05;;;1.52;;
75984;SDS011;65033;44.660;37.758;2023-04-03T00:48:28;3.67;;;1.70;;
75984;SDS011;65033;44.660;37.758;2023-04-03T00:49:34;5.43;;;1.60;;
75984;SDS011;65033;44.660;37.758;2023-04-03T00:50:39;5.10;;;1.88;;
75984;SDS011;65033;44.660;37.758;2023-04-03T00:51:45;4.75;;;1.45;;
75984;SDS011;65033;44.660;37.758;2023-04-03T00:52:49;4.90;;;1.60;;
75984;SDS011;65033;44.660;37.758;2023-04-03T00:53:56;4.82;;;1.60;;
75984;SDS011;65033;44.660;37.758;2023-04-03T00:55:02;4.70;;;2.05;;
75984;SDS011;65033;44.660;37.758;2023-04-03T00:56:09;5.38;;;1.95;;
75984;SDS011;65033;44.660;37.758;2023-04-03T00:57:14;6.55;;;2.08;;
75984;SDS011;65033;44.660;37.758;2023-04-03T00:58:19;7.35;;;1.77;;
75984;SDS011;65033;44.660;37.758;2023-04-03T00:59:25;5.75;;;2.13;;
75984;SDS011;65033;44.660;37.758;2023-04-03T01:00:33;7.03;;;2.40;;
75984;SDS011;65033;44.660;37.758;2023-04-03T01:01:40;10.00;;;2.50;;
75984;SDS011;65033;44.660;37.758;2023-04-03T01:02:45;4.40;;;2.72;;
75984;SDS011;65033;44.660;37.758;2023-04-03T01:03:49;4.60;;;2.13;;
75984;SDS011;65033;44.660;37.758;2023-04-03T01:04:53;4.53;;;1.67;;
75984;SDS011;65033;44.660;37.758;2023-04-03T01:05:57;5.93;;;2.25;;
75984;SDS011;65033;44.660;37.758;2023-04-03T01:07:05;6.68;;;1.88;;
75984;SDS011;65033;44.660;37.758;2023-04-03T01:08:10;6.70;;;2.53;;
75984;SDS011;65033;44.660;37.758;2023-04-03T01:09:14;5.10;;;2.25;;
75984;SDS011;65033;44.660;37.758;2023-04-03T01:10:17;5.15;;;2.45;;
75984;SDS011;65033;44.660;37.758;2023-04-03T01:11:23;6.50;;;1.63;;
75984;SDS011;65033;44.660;37.758;2023-04-03T01:12:28;6.85;;;2.25;;
75984;SDS011;65033;44.660;37.758;2023-04-03T01:13:33;6.38;;;2.17;;
75984;SDS011;65033;44.660;37.758;2023-04-03T01:14:38;2.75;;;1.88;;
75984;SDS011;65033;44.660;37.758;2023-04-03T01:15:41;5.35;;;1.95;;
75984;SDS011;65033;44.660;37.758;2023-04-03T01:16:52;6.28;;;1.88;;
75984;SDS011;65033;44.660;37.758;2023-04-03T01:17:56;4.97;;;2.53;;
75984;SDS011;65033;44.660;37.758;2023-04-03T01:19:01;9.82;;;2.53;;
75984;SDS011;65033;44.660;37.758;2023-04-03T01:21:45;5.32;;;2.25;;
75984;SDS011;65033;44.660;37.758;2023-04-03T01:23:09;4.22;;;2.30;;
75984;SDS011;65033;44.660;37.758;2023-04-03T01:24:26;6.90;;;2.47;;
75984;SDS011;65033;44.660;37.758;2023-04-03T01:25:37;10.88;;;4.90;;
75984;SDS011;65033;44.660;37.758;2023-04-03T01:26:41;7.90;;;2.55;;
75984;SDS011;65033;44.660;37.758;2023-04-03T01:27:45;8.98;;;3.75;;
75984;SDS011;65033;44.660;37.758;2023-04-03T01:28:48;5.70;;;3.17;;
75984;SDS011;65033;44.660;37.758;2023-04-03T01:29:52;7.20;;;2.65;;
75984;SDS011;65033;44.660;37.758;2023-04-03T01:30:58;4.93;;;2.03;;
75984;SDS011;65033;44.660;37.758;2023-04-03T01:32:09;7.20;;;2.40;;
75984;SDS011;65033;44.660;37.758;2023-04-03T01:33:12;6.20;;;2.80;;
75984;SDS011;65033;44.660;37.758;2023-04-03T01:34:16;12.23;;;3.35;;
75984;SDS011;65033;44.660;37.758;2023-04-03T01:35:19;7.45;;;2.45;;
75984;SDS011;65033;44.660;37.758;2023-04-03T01:36:24;6.10;;;2.83;;
75984;SDS011;65033;44.660;37.758;2023-04-03T01:37:29;8.18;;;2.60;;
75984;SDS011;65033;44.660;37.758;2023-04-03T01:38:32;15.63;;;6.03;;
75984;SDS011;65033;44.660;37.758;2023-04-03T01:39:35;6.18;;;3.10;;
75984;SDS011;65033;44.660;37.758;2023-04-03T01:40:39;7.50;;;3.63;;
75984;SDS011;65033;44.660;37.758;2023-04-03T01:41:42;13.65;;;3.67;;
75984;SDS011;65033;44.660;37.758;2023-04-03T01:42:51;11.80;;;3.83;;
75984;SDS011;65033;44.660;37.758;2023-04-03T01:43:54;9.02;;;3.08;;
75984;SDS011;65033;44.660;37.758;2023-04-03T01:44:58;7.38;;;3.42;;
75984;SDS011;65033;44.660;37.758;2023-04-03T01:46:01;8.52;;;3.63;;
75984;SDS011;65033;44.660;37.758;2023-04-03T01:47:08;10.88;;;4.40;;
75984;SDS011;65033;44.660;37.758;2023-04-03T01:48:14;7.35;;;3.03;;
75984;SDS011;65033;44.660;37.758;2023-04-03T01:49:17;10.65;;;3.95;;
75984;SDS011;65033;44.660;37.758;2023-04-03T01:50:21;9.13;;;3.40;;
75984;SDS011;65033;44.660;37.758;2023-04-03T01:51:24;15.52;;;5.57;;
75984;SDS011;65033;44.660;37.758;2023-04-03T01:52:28;7.95;;;3.63;;
75984;SDS011;65033;44.660;37.758;2023-04-03T01:53:31;10.07;;;3.30;;
75984;SDS011;65033;44.660;37.758;2023-04-03T01:54:34;7.35;;;2.85;;
75984;SDS011;65033;44.660;37.758;2023-04-03T01:55:38;6.68;;;2.95;;
75984;SDS011;65033;44.660;37.758;2023-04-03T01:56:41;7.95;;;3.30;;
75984;SDS011;65033;44.660;37.758;2023-04-03T01:58:47;9.40;;;3.50;;
75984;SDS011;65033;44.660;37.758;2023-04-03T01:59:51;13.60;;;4.20;;
75984;SDS011;65033;44.660;37.758;2023-04-03T02:00:55;10.98;;;3.67;;
75984;SDS011;65033;44.660;37.758;2023-04-03T02:01:58;8.07;;;3.67;;
75984;SDS011;65033;44.660;37.758;2023-04-03T02:03:04;7.38;;;2.80;;
75984;SDS011;65033;44.660;37.758;2023-04-03T02:04:08;9.32;;;2.83;;
75984;SDS011;65033;44.660;37.758;2023-04-03T02:05:11;8.98;;;3.60;;
75984;SDS011;65033;44.660;37.758;2023-04-03T02:06:14;8.90;;;3.50;;
75984;SDS011;65033;44.660;37.758;2023-04-03T02:07:18;6.82;;;3.05;;
75984;SDS011;65033;44.660;37.758;2023-04-03T02:08:21;6.25;;;2.83;;
75984;SDS011;65033;44.660;37.758;2023-04-03T02:09:24;9.05;;;3.80;;
75984;SDS011;65033;44.660;37.758;2023-04-03T02:10:28;9.93;;;4.88;;
75984;SDS011;65033;44.660;37.758;2023-04-03T02:11:32;7.93;;;2.78;;
75984;SDS011;65033;44.660;37.758;2023-04-03T02:12:35;13.10;;;5.78;;
75984;SDS011;65033;44.660;37.758;2023-04-03T02:13:38;6.15;;;3.55;;
75984;SDS011;65033;44.660;37.758;2023-04-03T02:14:42;9.10;;;3.83;;
75984;SDS011;65033;44.660;37.758;2023-04-03T02:15:46;9.98;;;3.60;;
75984;SDS011;65033;44.660;37.758;2023-04-03T02:16:54;11.25;;;5.18;;
75984;SDS011;65033;44.660;37.758;2023-04-03T02:17:57;10.30;;;4.65;;
75984;SDS011;65033;44.660;37.758;2023-04-03T02:19:02;9.63;;;3.72;;
75984;SDS011;65033;44.660;37.758;2023-04-03T02:20:06;13.30;;;4.28;;
75984;SDS011;65033;44.660;37.758;2023-04-03T02:21:10;10.65;;;3.40;;
75984;SDS011;65033;44.660;37.758;2023-04-03T02:23:16;9.35;;;4.18;;
75984;SDS011;65033;44.660;37.758;2023-04-03T02:24:19;10.43;;;4.40;;
75984;SDS011;65033;44.660;37.758;2023-04-03T02:25:23;13.27;;;4.22;;
75984;SDS011;65033;44.660;37.758;2023-04-03T02:26:26;9.98;;;3.80;;
75984;SDS011;65033;44.660;37.758;2023-04-03T02:27:29;7.70;;;3.42;;
75984;SDS011;65033;44.660;37.758;2023-04-03T02:28:34;10.40;;;3.83;;
75984;SDS011;65033;44.660;37.758;2023-04-03T02:29:37;10.38;;;4.25;;
75984;SDS011;65033;44.660;37.758;2023-04-03T02:30:41;14.68;;;6.05;;
75984;SDS011;65033;44.660;37.758;2023-04-03T02:31:45;8.85;;;3.80;;
75984;SDS011;65033;44.660;37.758;2023-04-03T02:32:49;6.57;;;3.33;;
75984;SDS011;65033;44.660;37.758;2023-04-03T02:33:52;9.43;;;3.65;;
75984;SDS011;65033;44.660;37.758;2023-04-03T02:34:57;9.60;;;4.10;;
75984;SDS011;65033;44.660;37.758;2023-04-03T02:36:00;12.82;;;4.72;;
75984;SDS011;65033;44.660;37.758;2023-04-03T02:37:04;14.10;;;5.18;;
75984;SDS011;65033;44.660;37.758;2023-04-03T02:38:08;12.77;;;3.42;;
75984;SDS011;65033;44.660;37.758;2023-04-03T02:39:11;15.43;;;4.10;;
75984;SDS011;65033;44.660;37.758;2023-04-03T02:40:15;18.38;;;5.63;;
75984;SDS011;65033;44.660;37.758;2023-04-03T02:41:18;11.27;;;5.88;;
75984;SDS011;65033;44.660;37.758;2023-04-03T02:42:25;8.70;;;4.15;;
75984;SDS011;65033;44.660;37.758;2023-04-03T02:43:28;14.50;;;5.07;;
75984;SDS011;65033;44.660;37.758;2023-04-03T02:44:31;12.52;;;4.15;;
75984;SDS011;65033;44.660;37.758;2023-04-03T02:45:34;10.07;;;4.82;;
75984;SDS011;65033;44.660;37.758;2023-04-03T02:46:38;12.07;;;6.25;;
75984;SDS011;65033;44.660;37.758;2023-04-03T02:47:41;9.40;;;4.20;;
75984;SDS011;65033;44.660;37.758;2023-04-03T02:48:45;7.85;;;4.53;;
75984;SDS011;65033;44.660;37.758;2023-04-03T02:49:48;7.88;;;3.95;;
75984;SDS011;65033;44.660;37.758;2023-04-03T02:50:53;9.18;;;3.90;;
75984;SDS011;65033;44.660;37.758;2023-04-03T02:51:57;7.95;;;3.35;;
75984;SDS011;65033;44.660;37.758;2023-04-03T02:53:00;10.98;;;5.25;;
75984;SDS011;65033;44.660;37.758;2023-04-03T02:54:04;11.63;;;6.38;;
75984;SDS011;65033;44.660;37.758;2023-04-03T02:55:12;9.77;;;4.47;;
75984;SDS011;65033;44.660;37.758;2023-04-03T02:56:19;9.93;;;4.10;;
75984;SDS011;65033;44.660;37.758;2023-04-03T02:57:23;13.85;;;4.43;;
75984;SDS011;65033;44.660;37.758;2023-04-03T02:58:26;11.57;;;4.40;;
75984;SDS011;65033;44.660;37.758;2023-04-03T02:59:32;8.65;;;4.20;;
75984;SDS011;65033;44.660;37.758;2023-04-03T03:00:36;8.30;;;4.18;;
75984;SDS011;65033;44.660;37.758;2023-04-03T03:01:40;9.27;;;4.43;;
75984;SDS011;65033;44.660;37.758;2023-04-03T03:02:45;9.90;;;4.20;;
75984;SDS011;65033;44.660;37.758;2023-04-03T03:03:48;13.52;;;5.32;;
75984;SDS011;65033;44.660;37.758;2023-04-03T03:04:52;9.30;;;5.45;;
75984;SDS011;65033;44.660;37.758;2023-04-03T03:06:06;15.07;;;7.60;;
75984;SDS011;65033;44.660;37.758;2023-04-03T03:07:10;11.13;;;5.45;;
75984;SDS011;65033;44.660;37.758;2023-04-03T03:08:14;11.50;;;5.47;;
75984;SDS011;65033;44.660;37.758;2023-04-03T03:09:17;12.13;;;6.78;;
75984;SDS011;65033;44.660;37.758;2023-04-03T03:10:21;9.48;;;5.03;;
75984;SDS011;65033;44.660;37.758;2023-04-03T03:11:25;9.40;;;4.75;;
75984;SDS011;65033;44.660;37.758;2023-04-03T03:12:28;8.23;;;4.70;;
75984;SDS011;65033;44.660;37.758;2023-04-03T03:13:33;13.55;;;5.35;;
75984;SDS011;65033;44.660;37.758;2023-04-03T03:14:36;11.77;;;4.85;;
75984;SDS011;65033;44.660;37.758;2023-04-03T03:15:40;10.88;;;5.40;;
75984;SDS011;65033;44.660;37.758;2023-04-03T03:16:43;10.60;;;5.05;;
75984;SDS011;65033;44.660;37.758;2023-04-03T03:17:47;8.95;;;4.95;;
75984;SDS011;65033;44.660;37.758;2023-04-03T03:18:50;13.50;;;6.13;;
75984;SDS011;65033;44.660;37.758;2023-04-03T03:19:53;11.60;;;6.78;;
75984;SDS011;65033;44.660;37.758;2023-04-03T03:20:58;17.90;;;7.30;;
75984;SDS011;65033;44.660;37.758;2023-04-03T03:22:04;12.65;;;6.40;;
75984;SDS011;65033;44.660;37.758;2023-04-03T03:23:08;8.95;;;4.75;;
75984;SDS011;65033;44.660;37.758;2023-04-03T03:24:12;10.10;;;4.90;;
75984;SDS011;65033;44.660;37.758;2023-04-03T03:25:15;19.02;;;7.78;;
75984;SDS011;65033;44.660;37.758;2023-04-03T03:26:19;9.80;;;5.35;;
75984;SDS011;65033;44.660;37.758;2023-04-03T03:27:22;14.70;;;6.50;;
75984;SDS011;65033;44.660;37.758;2023-04-03T03:28:26;23.33;;;11.13;;
75984;SDS011;65033;44.660;37.758;2023-04-03T03:29:30;8.65;;;5.05;;
75984;SDS011;65033;44.660;37.758;2023-04-03T03:30:33;11.32;;;5.38;;
75984;SDS011;65033;44.660;37.758;2023-04-03T03:31:37;16.02;;;6.15;;
75984;SDS011;65033;44.660;37.758;2023-04-03T03:32:41;12.95;;;6.95;;
75984;SDS011;65033;44.660;37.758;2023-04-03T03:33:45;15.10;;;5.68;;
75984;SDS011;65033;44.660;37.758;2023-04-03T03:34:48;15.02;;;6.38;;
75984;SDS011;65033;44.660;37.758;2023-04-03T03:35:52;13.88;;;6.82;;
75984;SDS011;65033;44.660;37.758;2023-04-03T03:36:56;12.05;;;5.60;;
75984;SDS011;65033;44.660;37.758;2023-04-03T03:38:01;13.73;;;5.68;;
75984;SDS011;65033;44.660;37.758;2023-04-03T03:39:07;12.20;;;5.32;;
75984;SDS011;65033;44.660;37.758;2023-04-03T03:40:11;25.85;;;17.25;;
75984;SDS011;65033;44.660;37.758;2023-04-03T03:41:15;16.77;;;13.85;;
75984;SDS011;65033;44.660;37.758;2023-04-03T03:42:19;10.20;;;4.80;;
75984;SDS011;65033;44.660;37.758;2023-04-03T03:43:24;11.40;;;5.47;;
75984;SDS011;65033;44.660;37.758;2023-04-03T03:44:28;10.13;;;5.43;;
75984;SDS011;65033;44.660;37.758;2023-04-03T03:45:32;9.73;;;5.20;;
75984;SDS011;65033;44.660;37.758;2023-04-03T03:46:36;18.90;;;8.57;;
75984;SDS011;65033;44.660;37.758;2023-04-03T03:47:39;9.52;;;5.75;;
75984;SDS011;65033;44.660;37.758;2023-04-03T03:48:43;23.67;;;10.52;;
75984;SDS011;65033;44.660;37.758;2023-04-03T03:49:47;9.88;;;5.22;;
75984;SDS011;65033;44.660;37.758;2023-04-03T03:50:51;16.63;;;8.35;;
75984;SDS011;65033;44.660;37.758;2023-04-03T03:51:58;11.23;;;4.78;;
75984;SDS011;65033;44.660;37.758;2023-04-03T03:53:03;13.48;;;5.25;;
75984;SDS011;65033;44.660;37.758;2023-04-03T03:54:07;8.80;;;5.63;;
75984;SDS011;65033;44.660;37.758;2023-04-03T03:55:10;12.13;;;6.30;;
75984;SDS011;65033;44.660;37.758;2023-04-03T03:56:15;14.38;;;6.50;;
75984;SDS011;65033;44.660;37.758;2023-04-03T03:57:20;12.30;;;5.50;;
75984;SDS011;65033;44.660;37.758;2023-04-03T03:58:24;11.98;;;5.03;;
75984;SDS011;65033;44.660;37.758;2023-04-03T03:59:27;11.35;;;6.07;;
75984;SDS011;65033;44.660;37.758;2023-04-03T04:00:30;17.55;;;5.30;;
75984;SDS011;65033;44.660;37.758;2023-04-03T04:01:35;12.35;;;5.32;;
75984;SDS011;65033;44.660;37.758;2023-04-03T04:02:39;8.43;;;5.10;;
75984;SDS011;65033;44.660;37.758;2023-04-03T04:03:46;15.77;;;5.85;;
75984;SDS011;65033;44.660;37.758;2023-04-03T04:04:54;10.05;;;5.85;;
75984;SDS011;65033;44.660;37.758;2023-04-03T04:05:58;16.33;;;7.75;;
75984;SDS011;65033;44.660;37.758;2023-04-03T04:07:02;13.38;;;5.22;;
75984;SDS011;65033;44.660;37.758;2023-04-03T04:08:09;13.68;;;5.38;;
75984;SDS011;65033;44.660;37.758;2023-04-03T04:09:12;13.95;;;6.10;;
75984;SDS011;65033;44.660;37.758;2023-04-03T04:10:16;13.43;;;5.55;;
75984;SDS011;65033;44.660;37.758;2023-04-03T04:11:20;13.68;;;4.95;;
75984;SDS011;65033;44.660;37.758;2023-04-03T04:12:26;10.02;;;5.38;;
75984;SDS011;65033;44.660;37.758;2023-04-03T04:13:30;12.00;;;5.05;;
75984;SDS011;65033;44.660;37.758;2023-04-03T04:14:33;13.30;;;5.50;;
75984;SDS011;65033;44.660;37.758;2023-04-03T04:15:37;16.92;;;5.05;;
75984;SDS011;65033;44.660;37.758;2023-04-03T04:16:40;11.38;;;5.15;;
75984;SDS011;65033;44.660;37.758;2023-04-03T04:17:49;11.15;;;5.15;;
75984;SDS011;65033;44.660;37.758;2023-04-03T04:18:53;9.93;;;4.63;;
75984;SDS011;65033;44.660;37.758;2023-04-03T04:19:57;13.50;;;6.68;;
75984;SDS011;65033;44.660;37.758;2023-04-03T04:21:01;16.17;;;5.53;;
75984;SDS011;65033;44.660;37.758;2023-04-03T04:22:05;16.67;;;6.35;;
75984;SDS011;65033;44.660;37.758;2023-04-03T04:23:10;12.00;;;6.50;;
75984;SDS011;65033;44.660;37.758;2023-04-03T04:24:13;12.13;;;7.18;;
75984;SDS011;65033;44.660;37.758;2023-04-03T04:25:17;11.48;;;8.20;;
75984;SDS011;65033;44.660;37.758;2023-04-03T04:26:20;16.85;;;9.77;;
75984;SDS011;65033;44.660;37.758;2023-04-03T04:27:24;11.57;;;6.97;;
75984;SDS011;65033;44.660;37.758;2023-04-03T04:28:27;15.77;;;4.85;;
75984;SDS011;65033;44.660;37.758;2023-04-03T04:29:33;12.30;;;5.28;;
75984;SDS011;65033;44.660;37.758;2023-04-03T04:30:40;11.10;;;5.18;;
75984;SDS011;65033;44.660;37.758;2023-04-03T04:31:44;14.50;;;5.10;;
75984;SDS011;65033;44.660;37.758;2023-04-03T04:32:49;12.05;;;5.53;;
75984;SDS011;65033;44.660;37.758;2023-04-03T04:33:54;12.27;;;5.78;;
75984;SDS011;65033;44.660;37.758;2023-04-03T04:34:57;14.20;;;4.80;;
75984;SDS011;65033;44.660;37.758;2023-04-03T04:36:04;10.82;;;4.57;;
75984;SDS011;65033;44.660;37.758;2023-04-03T04:37:08;18.42;;;8.77;;
75984;SDS011;65033;44.660;37.758;2023-04-03T04:38:13;14.82;;;5.68;;
75984;SDS011;65033;44.660;37.758;2023-04-03T04:39:17;9.98;;;4.85;;
75984;SDS011;65033;44.660;37.758;2023-04-03T04:40:20;11.13;;;5.40;;
75984;SDS011;65033;44.660;37.758;2023-04-03T04:41:24;14.23;;;5.30;;
75984;SDS011;65033;44.660;37.758;2023-04-03T04:42:27;13.25;;;5.43;;
75984;SDS011;65033;44.660;37.758;2023-04-03T04:43:31;11.45;;;5.35;;
75984;SDS011;65033;44.660;37.758;2023-04-03T04:44:35;16.25;;;5.43;;
75984;SDS011;65033;44.660;37.758;2023-04-03T04:45:38;10.32;;;5.97;;
75984;SDS011;65033;44.660;37.758;2023-04-03T04:46:42;12.02;;;5.43;;
75984;SDS011;65033;44.660;37.758;2023-04-03T04:47:45;11.98;;;5.38;;
75984;SDS011;65033;44.660;37.758;2023-04-03T04:48:51;11.32;;;5.30;;
75984;SDS011;65033;44.660;37.758;2023-04-03T04:49:56;16.30;;;5.53;;
75984;SDS011;65033;44.660;37.758;2023-04-03T04:51:00;10.32;;;4.88;;
75984;SDS011;65033;44.660;37.758;2023-04-03T04:52:04;9.35;;;4.78;;
75984;SDS011;65033;44.660;37.758;2023-04-03T04:53:09;8.73;;;5.38;;
75984;SDS011;65033;44.660;37.758;2023-04-03T04:54:14;15.05;;;5.88;;
75984;SDS011;65033;44.660;37.758;2023-04-03T04:55:18;16.33;;;5.65;;
75984;SDS011;65033;44.660;37.758;2023-04-03T04:56:22;15.73;;;6.85;;
75984;SDS011;65033;44.660;37.758;2023-04-03T04:57:25;13.50;;;5.53;;
75984;SDS011;65033;44.660;37.758;2023-04-03T04:58:31;11.30;;;5.00;;
75984;SDS011;65033;44.660;37.758;2023-04-03T04:59:36;11.55;;;6.20;;
75984;SDS011;65033;44.660;37.758;2023-04-03T05:00:41;13.40;;;5.13;;
75984;SDS011;65033;44.660;37.758;2023-04-03T05:01:46;11.85;;;6.85;;
75984;SDS011;65033;44.660;37.758;2023-04-03T05:02:52;19.50;;;14.35;;
75984;SDS011;65033;44.660;37.758;2023-04-03T05:03:55;17.25;;;8.82;;
75984;SDS011;65033;44.660;37.758;2023-04-03T05:04:59;13.00;;;5.15;;
75984;SDS011;65033;44.660;37.758;2023-04-03T05:06:05;10.82;;;4.45;;
75984;SDS011;65033;44.660;37.758;2023-04-03T05:07:10;11.68;;;4.95;;
75984;SDS011;65033;44.660;37.758;2023-04-03T05:08:14;10.93;;;4.70;;
75984;SDS011;65033;44.660;37.758;2023-04-03T05:09:19;11.23;;;4.70;;
75984;SDS011;65033;44.660;37.758;2023-04-03T05:10:24;9.50;;;4.28;;
75984;SDS011;65033;44.660;37.758;2023-04-03T05:11:27;15.02;;;4.55;;
75984;SDS011;65033;44.660;37.758;2023-04-03T05:12:31;9.88;;;4.43;;
75984;SDS011;65033;44.660;37.758;2023-04-03T05:13:38;9.70;;;4.82;;
75984;SDS011;65033;44.660;37.758;2023-04-03T05:14:41;9.45;;;4.25;;
75984;SDS011;65033;44.660;37.758;2023-04-03T05:15:46;12.02;;;5.10;;
75984;SDS011;65033;44.660;37.758;2023-04-03T05:16:49;13.13;;;4.95;;
75984;SDS011;65033;44.660;37.758;2023-04-03T05:17:59;10.88;;;5.20;;
75984;SDS011;65033;44.660;37.758;2023-04-03T05:19:03;16.30;;;8.70;;
75984;SDS011;65033;44.660;37.758;2023-04-03T05:20:07;11.75;;;9.73;;
75984;SDS011;65033;44.660;37.758;2023-04-03T05:21:11;18.95;;;11.85;;
75984;SDS011;65033;44.660;37.758;2023-04-03T05:22:15;13.43;;;5.53;;
75984;SDS011;65033;44.660;37.758;2023-04-03T05:23:19;13.65;;;5.10;;
75984;SDS011;65033;44.660;37.758;2023-04-03T05:24:25;13.55;;;5.03;;
75984;SDS011;65033;44.660;37.758;2023-04-03T05:25:29;12.45;;;4.95;;
75984;SDS011;65033;44.660;37.758;2023-04-03T05:26:33;10.63;;;4.53;;
75984;SDS011;65033;44.660;37.758;2023-04-03T05:27:37;10.20;;;3.63;;
75984;SDS011;65033;44.660;37.758;2023-04-03T05:28:40;9.73;;;4.22;;
75984;SDS011;65033;44.660;37.758;2023-04-03T05:29:45;9.57;;;5.10;;
75984;SDS011;65033;44.660;37.758;2023-04-03T05:30:54;10.32;;;4.72;;
75984;SDS011;65033;44.660;37.758;2023-04-03T05:31:59;14.93;;;4.25;;
75984;SDS011;65033;44.660;37.758;2023-04-03T05:33:03;11.95;;;4.20;;
75984;SDS011;65033;44.660;37.758;2023-04-03T05:34:15;8.88;;;3.83;;
75984;SDS011;65033;44.660;37.758;2023-04-03T05:35:21;12.50;;;5.63;;
75984;SDS011;65033;44.660;37.758;2023-04-03T05:36:29;10.32;;;4.60;;
75984;SDS011;65033;44.660;37.758;2023-04-03T05:37:36;9.95;;;4.03;;
75984;SDS011;65033;44.660;37.758;2023-04-03T05:38:40;8.40;;;3.70;;
75984;SDS011;65033;44.660;37.758;2023-04-03T05:39:46;10.57;;;4.57;;
75984;SDS011;65033;44.660;37.758;2023-04-03T05:40:49;11.82;;;4.97;;
75984;SDS011;65033;44.660;37.758;2023-04-03T05:41:53;11.80;;;5.13;;
75984;SDS011;65033;44.660;37.758;2023-04-03T05:42:57;9.60;;;4.05;;
75984;SDS011;65033;44.660;37.758;2023-04-03T05:44:03;11.65;;;4.45;;
75984;SDS011;65033;44.660;37.758;2023-04-03T05:45:07;10.63;;;4.95;;
75984;SDS011;65033;44.660;37.758;2023-04-03T05:46:11;16.05;;;10.52;;
75984;SDS011;65033;44.660;37.758;2023-04-03T05:47:17;17.00;;;9.95;;
75984;SDS011;65033;44.660;37.758;2023-04-03T05:48:20;10.93;;;4.38;;
75984;SDS011;65033;44.660;37.758;2023-04-03T05:49:24;14.38;;;5.50;;
75984;SDS011;65033;44.660;37.758;2023-04-03T05:50:28;11.60;;;5.22;;
75984;SDS011;65033;44.660;37.758;2023-04-03T05:51:33;11.45;;;5.22;;
75984;SDS011;65033;44.660;37.758;2023-04-03T05:52:48;8.13;;;4.28;;
75984;SDS011;65033;44.660;37.758;2023-04-03T05:53:55;12.82;;;4.75;;
75984;SDS011;65033;44.660;37.758;2023-04-03T05:55:07;12.68;;;4.13;;
75984;SDS011;65033;44.660;37.758;2023-04-03T05:56:11;7.68;;;4.03;;
75984;SDS011;65033;44.660;37.758;2023-04-03T05:57:15;10.52;;;4.57;;
75984;SDS011;65033;44.660;37.758;2023-04-03T05:58:19;10.27;;;4.80;;
75984;SDS011;65033;44.660;37.758;2023-04-03T05:59:24;16.40;;;4.85;;
75984;SDS011;65033;44.660;37.758;2023-04-03T06:00:30;12.80;;;4.80;;
75984;SDS011;65033;44.660;37.758;2023-04-03T06:01:37;13.80;;;4.50;;
75984;SDS011;65033;44.660;37.758;2023-04-03T06:02:41;14.25;;;4.72;;
75984;SDS011;65033;44.660;37.758;2023-04-03T06:03:51;15.73;;;4.45;;
75984;SDS011;65033;44.660;37.758;2023-04-03T06:04:55;10.98;;;4.82;;
75984;SDS011;65033;44.660;37.758;2023-04-03T06:05:58;11.02;;;4.40;;
75984;SDS011;65033;44.660;37.758;2023-04-03T06:07:02;15.27;;;5.63;;
75984;SDS011;65033;44.660;37.758;2023-04-03T06:08:05;12.77;;;5.15;;
75984;SDS011;65033;44.660;37.758;2023-04-03T06:09:09;12.52;;;5.10;;
75984;SDS011;65033;44.660;37.758;2023-04-03T06:10:14;19.10;;;9.82;;
75984;SDS011;65033;44.660;37.758;2023-04-03T06:11:21;13.82;;;7.10;;
75984;SDS011;65033;44.660;37.758;2023-04-03T06:12:25;10.52;;;4.35;;
75984;SDS011;65033;44.660;37.758;2023-04-03T06:13:31;8.30;;;3.97;;
75984;SDS011;65033;44.660;37.758;2023-04-03T06:14:36;11.18;;;5.13;;
75984;SDS011;65033;44.660;37.758;2023-04-03T06:15:39;7.07;;;3.28;;
75984;SDS011;65033;44.660;37.758;2023-04-03T06:16:44;10.82;;;4.97;;
75984;SDS011;65033;44.660;37.758;2023-04-03T06:17:47;10.05;;;3.70;;
75984;SDS011;65033;44.660;37.758;2023-04-03T06:18:51;7.45;;;3.95;;
75984;SDS011;65033;44.660;37.758;2023-04-03T06:19:54;9.45;;;4.05;;
75984;SDS011;65033;44.660;37.758;2023-04-03T06:21:01;12.52;;;4.70;;
75984;SDS011;65033;44.660;37.758;2023-04-03T06:22:05;8.98;;;4.72;;
75984;SDS011;65033;44.660;37.758;2023-04-03T06:23:09;15.25;;;4.25;;
75984;SDS011;65033;44.660;37.758;2023-04-03T06:24:13;8.80;;;3.92;;
75984;SDS011;65033;44.660;37.758;2023-04-03T06:25:19;7.80;;;3.30;;
75984;SDS011;65033;44.660;37.758;2023-04-03T06:26:23;12.55;;;3.85;;